Main page
METAR-TAF:

METAR-TAF

Airports :

Los Angeles International Airport

Los Angeles, California, United States

latitude: 33-56-17N, longitude: 118-23-20W, elevation: 38 m

Current weather observation

The report was made 20 minutes ago, at 16:53 UTC
Wind 5 kt from variable directions
Temperature 21°C
Humidity 16%
Pressure 1026 hPa
Visibility: 16.1 km
Few clouds at a height of 16000 ft

METAR: KLAX 261653Z VRB05KT 10SM FEW160 21/M06 A3031 RMK AO2 SLP263 T02061056

Time: 09:13 (17:13 UTC)

Forecast

The report was made 2 hours and 12 minutes ago, at 15:01 UTC
Forecast valid from 26 at 15 UTC to 27 at 18 UTC
Wind kt from the North
Visibility: 10 km
Few clouds at a height of 15000 ft
From 26 at 2000 UTC
Wind 10 kt from the West
Visibility: 10 km
Clear sky
From 27 at 0400 UTC
Wind 3 kt from variable directions
Visibility: 10 km
Clear sky

TAF: KLAX 261501Z 2615/2718 00000KT P6SM FEW150 FM262000 26010KT P6SM SKC FM270400 VRB03KT P6SM SKC

Weather observations and forecasts of more than 4000 airports (METAR and TAF reports).

The available stations are represented by yellow and red dots on the map.

Hover mouse over dot to see the name of the station.

Then click to see weather observations and forecasts.

To change the map : click on the green buttons with a black cross to zoom in, on the green button with a dash to zoom out, or on the green arrows for adjacent maps.


METAR-TAF: